sensor_id;sensor_type;location;lat;lon;timestamp;temperature;humidity
50989;DHT22;37008;52.210;21.112;2023-06-19T00:01:10;12.30;99.90
50989;DHT22;37008;52.210;21.112;2023-06-19T00:03:39;12.30;99.90
50989;DHT22;37008;52.210;21.112;2023-06-19T00:06:05;12.30;99.90
50989;DHT22;37008;52.210;21.112;2023-06-19T00:08:31;12.20;99.90
50989;DHT22;37008;52.210;21.112;2023-06-19T00:10:57;12.20;99.90
50989;DHT22;37008;52.210;21.112;2023-06-19T00:13:22;12.10;99.90
50989;DHT22;37008;52.210;21.112;2023-06-19T00:15:48;12.10;99.90
50989;DHT22;37008;52.210;21.112;2023-06-19T00:18:14;12.10;99.90
50989;DHT22;37008;52.210;21.112;2023-06-19T00:20:42;12.00;99.90
50989;DHT22;37008;52.210;21.112;2023-06-19T00:23:11;12.00;99.90
50989;DHT22;37008;52.210;21.112;2023-06-19T00:25:40;11.90;99.90
50989;DHT22;37008;52.210;21.112;2023-06-19T00:28:05;11.90;99.90
50989;DHT22;37008;52.210;21.112;2023-06-19T00:30:39;11.90;99.90
50989;DHT22;37008;52.210;21.112;2023-06-19T00:33:05;11.80;99.90
50989;DHT22;37008;52.210;21.112;2023-06-19T00:35:32;11.80;99.90
50989;DHT22;37008;52.210;21.112;2023-06-19T00:37:57;11.80;99.90
50989;DHT22;37008;52.210;21.112;2023-06-19T00:40:31;11.70;99.90
50989;DHT22;37008;52.210;21.112;2023-06-19T00:42:57;11.70;99.90
50989;DHT22;37008;52.210;21.112;2023-06-19T00:45:24;11.70;99.90
50989;DHT22;37008;52.210;21.112;2023-06-19T00:47:53;11.70;99.90
50989;DHT22;37008;52.210;21.112;2023-06-19T00:50:23;11.70;99.90
50989;DHT22;37008;52.210;21.112;2023-06-19T00:52:49;11.60;99.90
50989;DHT22;37008;52.210;21.112;2023-06-19T00:55:17;11.60;99.90
50989;DHT22;37008;52.210;21.112;2023-06-19T00:57:43;11.60;99.90
50989;DHT22;37008;52.210;21.112;2023-06-19T01:00:10;11.60;99.90
50989;DHT22;37008;52.210;21.112;2023-06-19T01:02:38;11.60;99.90
50989;DHT22;37008;52.210;21.112;2023-06-19T01:05:05;11.50;99.90
50989;DHT22;37008;52.210;21.112;2023-06-19T01:10:24;11.40;99.90
50989;DHT22;37008;52.210;21.112;2023-06-19T01:15:51;11.40;99.90
50989;DHT22;37008;52.210;21.112;2023-06-19T01:18:17;11.40;99.90
50989;DHT22;37008;52.210;21.112;2023-06-19T01:20:44;11.40;99.90
50989;DHT22;37008;52.210;21.112;2023-06-19T01:23:11;11.40;99.90
50989;DHT22;37008;52.210;21.112;2023-06-19T01:25:38;11.40;99.90
50989;DHT22;37008;52.210;21.112;2023-06-19T01:28:06;11.30;99.90
50989;DHT22;37008;52.210;21.112;2023-06-19T01:30:36;11.30;99.90
50989;DHT22;37008;52.210;21.112;2023-06-19T01:33:12;11.30;99.90
50989;DHT22;37008;52.210;21.112;2023-06-19T01:35:42;11.30;99.90
50989;DHT22;37008;52.210;21.112;2023-06-19T01:38:08;11.30;99.90
50989;DHT22;37008;52.210;21.112;2023-06-19T01:40:37;11.20;99.90
50989;DHT22;37008;52.210;21.112;2023-06-19T01:43:03;11.20;99.90
50989;DHT22;37008;52.210;21.112;2023-06-19T01:45:30;11.20;99.90
50989;DHT22;37008;52.210;21.112;2023-06-19T01:47:57;11.20;99.90
50989;DHT22;37008;52.210;21.112;2023-06-19T01:50:23;11.20;99.90
50989;DHT22;37008;52.210;21.112;2023-06-19T01:52:49;11.20;99.90
50989;DHT22;37008;52.210;21.112;2023-06-19T01:55:15;11.20;99.90
50989;DHT22;37008;52.210;21.112;2023-06-19T01:57:41;11.20;99.90
50989;DHT22;37008;52.210;21.112;2023-06-19T02:00:07;11.10;99.90
50989;DHT22;37008;52.210;21.112;2023-06-19T02:02:33;11.10;99.90
50989;DHT22;37008;52.210;21.112;2023-06-19T02:04:59;11.10;99.90
50989;DHT22;37008;52.210;21.112;2023-06-19T02:07:25;11.10;99.90
50989;DHT22;37008;52.210;21.112;2023-06-19T02:09:50;11.10;99.90
50989;DHT22;37008;52.210;21.112;2023-06-19T02:12:16;11.10;99.90
50989;DHT22;37008;52.210;21.112;2023-06-19T02:14:42;11.00;99.90
50989;DHT22;37008;52.210;21.112;2023-06-19T02:17:07;10.90;99.90
50989;DHT22;37008;52.210;21.112;2023-06-19T02:19:33;11.00;99.90
50989;DHT22;37008;52.210;21.112;2023-06-19T02:21:59;11.00;99.90
50989;DHT22;37008;52.210;21.112;2023-06-19T02:24:24;10.90;99.90
50989;DHT22;37008;52.210;21.112;2023-06-19T02:26:50;11.00;99.90
50989;DHT22;37008;52.210;21.112;2023-06-19T02:29:16;10.90;99.90
50989;DHT22;37008;52.210;21.112;2023-06-19T02:31:42;10.90;99.90
50989;DHT22;37008;52.210;21.112;2023-06-19T02:34:08;11.00;99.90
50989;DHT22;37008;52.210;21.112;2023-06-19T02:36:34;10.90;99.90
50989;DHT22;37008;52.210;21.112;2023-06-19T02:39:01;10.90;99.90
50989;DHT22;37008;52.210;21.112;2023-06-19T02:41:27;10.90;99.90
50989;DHT22;37008;52.210;21.112;2023-06-19T02:43:53;10.80;99.90
50989;DHT22;37008;52.210;21.112;2023-06-19T02:46:19;10.80;99.90
50989;DHT22;37008;52.210;21.112;2023-06-19T02:48:45;10.80;99.90
50989;DHT22;37008;52.210;21.112;2023-06-19T02:51:10;10.80;99.90
50989;DHT22;37008;52.210;21.112;2023-06-19T02:53:36;10.80;99.90
50989;DHT22;37008;52.210;21.112;2023-06-19T02:56:02;10.80;99.90
50989;DHT22;37008;52.210;21.112;2023-06-19T02:58:27;10.80;99.90
50989;DHT22;37008;52.210;21.112;2023-06-19T03:00:53;10.90;99.90
50989;DHT22;37008;52.210;21.112;2023-06-19T03:03:19;10.80;99.90
50989;DHT22;37008;52.210;21.112;2023-06-19T03:05:44;10.90;99.90
50989;DHT22;37008;52.210;21.112;2023-06-19T03:08:10;10.90;99.90
50989;DHT22;37008;52.210;21.112;2023-06-19T03:10:36;10.90;99.90
50989;DHT22;37008;52.210;21.112;2023-06-19T03:13:01;10.90;99.90
50989;DHT22;37008;52.210;21.112;2023-06-19T03:15:27;10.90;99.90
50989;DHT22;37008;52.210;21.112;2023-06-19T03:17:53;11.00;99.90
50989;DHT22;37008;52.210;21.112;2023-06-19T03:20:19;11.00;99.90
50989;DHT22;37008;52.210;21.112;2023-06-19T03:22:46;11.00;99.90
50989;DHT22;37008;52.210;21.112;2023-06-19T03:25:12;11.10;99.90
50989;DHT22;37008;52.210;21.112;2023-06-19T03:27:37;11.10;99.90
50989;DHT22;37008;52.210;21.112;2023-06-19T03:30:04;11.10;99.90
50989;DHT22;37008;52.210;21.112;2023-06-19T03:32:34;11.20;99.90
50989;DHT22;37008;52.210;21.112;2023-06-19T03:35:00;11.30;99.90
50989;DHT22;37008;52.210;21.112;2023-06-19T03:37:26;11.30;99.90
50989;DHT22;37008;52.210;21.112;2023-06-19T03:39:52;11.40;99.90
50989;DHT22;37008;52.210;21.112;2023-06-19T03:42:17;11.50;99.90
50989;DHT22;37008;52.210;21.112;2023-06-19T03:44:43;11.60;99.90
50989;DHT22;37008;52.210;21.112;2023-06-19T03:47:08;11.70;99.90
50989;DHT22;37008;52.210;21.112;2023-06-19T03:49:34;11.80;99.90
50989;DHT22;37008;52.210;21.112;2023-06-19T03:52:00;11.90;99.90
50989;DHT22;37008;52.210;21.112;2023-06-19T03:54:26;12.00;99.90
50989;DHT22;37008;52.210;21.112;2023-06-19T03:56:52;12.20;99.90
50989;DHT22;37008;52.210;21.112;2023-06-19T03:59:18;12.30;99.90
50989;DHT22;37008;52.210;21.112;2023-06-19T04:01:43;12.50;99.90
50989;DHT22;37008;52.210;21.112;2023-06-19T04:04:09;12.80;99.90
50989;DHT22;37008;52.210;21.112;2023-06-19T04:06:35;13.20;99.90
50989;DHT22;37008;52.210;21.112;2023-06-19T04:09:00;13.60;99.90
50989;DHT22;37008;52.210;21.112;2023-06-19T04:11:26;13.90;99.90
50989;DHT22;37008;52.210;21.112;2023-06-19T04:13:51;14.20;99.90
50989;DHT22;37008;52.210;21.112;2023-06-19T04:16:17;14.30;99.90
50989;DHT22;37008;52.210;21.112;2023-06-19T04:18:43;14.30;99.90
50989;DHT22;37008;52.210;21.112;2023-06-19T04:21:08;14.30;99.90
50989;DHT22;37008;52.210;21.112;2023-06-19T04:23:34;14.30;99.90
50989;DHT22;37008;52.210;21.112;2023-06-19T04:25:59;14.20;99.90
50989;DHT22;37008;52.210;21.112;2023-06-19T04:28:25;14.20;99.90
50989;DHT22;37008;52.210;21.112;2023-06-19T04:30:51;14.20;99.90
50989;DHT22;37008;52.210;21.112;2023-06-19T04:33:28;14.10;99.90
50989;DHT22;37008;52.210;21.112;2023-06-19T04:35:55;14.10;99.90
50989;DHT22;37008;52.210;21.112;2023-06-19T04:38:21;14.20;99.90
50989;DHT22;37008;52.210;21.112;2023-06-19T04:40:52;14.30;99.90
50989;DHT22;37008;52.210;21.112;2023-06-19T04:43:18;14.30;99.90
50989;DHT22;37008;52.210;21.112;2023-06-19T04:45:44;14.40;99.90
50989;DHT22;37008;52.210;21.112;2023-06-19T04:48:10;14.50;99.90
50989;DHT22;37008;52.210;21.112;2023-06-19T04:50:36;14.60;99.90
50989;DHT22;37008;52.210;21.112;2023-06-19T04:53:02;14.70;99.90
50989;DHT22;37008;52.210;21.112;2023-06-19T04:55:28;14.80;99.90
50989;DHT22;37008;52.210;21.112;2023-06-19T04:57:53;14.90;99.90
50989;DHT22;37008;52.210;21.112;2023-06-19T05:00:20;14.90;99.90
50989;DHT22;37008;52.210;21.112;2023-06-19T05:02:49;15.00;99.90
50989;DHT22;37008;52.210;21.112;2023-06-19T05:05:15;15.10;99.90
50989;DHT22;37008;52.210;21.112;2023-06-19T05:07:41;15.20;99.90
50989;DHT22;37008;52.210;21.112;2023-06-19T05:10:06;15.30;99.90
50989;DHT22;37008;52.210;21.112;2023-06-19T05:12:34;15.40;99.90
50989;DHT22;37008;52.210;21.112;2023-06-19T05:14:59;15.50;99.90
50989;DHT22;37008;52.210;21.112;2023-06-19T05:17:25;15.60;99.90
50989;DHT22;37008;52.210;21.112;2023-06-19T05:19:51;15.70;99.90
50989;DHT22;37008;52.210;21.112;2023-06-19T05:22:16;15.80;99.90
50989;DHT22;37008;52.210;21.112;2023-06-19T05:24:44;15.90;99.90
50989;DHT22;37008;52.210;21.112;2023-06-19T05:27:10;16.00;99.90
50989;DHT22;37008;52.210;21.112;2023-06-19T05:29:35;16.10;99.90
50989;DHT22;37008;52.210;21.112;2023-06-19T05:32:01;16.20;99.90
50989;DHT22;37008;52.210;21.112;2023-06-19T05:34:27;16.20;99.90
50989;DHT22;37008;52.210;21.112;2023-06-19T05:36:52;16.30;99.90
50989;DHT22;37008;52.210;21.112;2023-06-19T05:39:18;16.40;99.90
50989;DHT22;37008;52.210;21.112;2023-06-19T05:41:44;16.50;99.90
50989;DHT22;37008;52.210;21.112;2023-06-19T05:44:11;16.60;99.90
50989;DHT22;37008;52.210;21.112;2023-06-19T05:46:41;16.70;99.90
50989;DHT22;37008;52.210;21.112;2023-06-19T05:49:06;16.70;99.90
50989;DHT22;37008;52.210;21.112;2023-06-19T05:51:32;16.90;99.90
50989;DHT22;37008;52.210;21.112;2023-06-19T05:53:58;16.90;99.90
50989;DHT22;37008;52.210;21.112;2023-06-19T05:56:29;17.10;99.90
50989;DHT22;37008;52.210;21.112;2023-06-19T05:58:55;17.10;99.90
50989;DHT22;37008;52.210;21.112;2023-06-19T06:01:20;17.20;99.90
50989;DHT22;37008;52.210;21.112;2023-06-19T06:03:46;17.30;99.90
50989;DHT22;37008;52.210;21.112;2023-06-19T06:06:11;17.40;99.90
50989;DHT22;37008;52.210;21.112;2023-06-19T06:08:37;17.40;99.90
50989;DHT22;37008;52.210;21.112;2023-06-19T06:11:03;17.50;99.90
50989;DHT22;37008;52.210;21.112;2023-06-19T06:13:28;17.50;99.90
50989;DHT22;37008;52.210;21.112;2023-06-19T06:15:54;17.60;99.90
50989;DHT22;37008;52.210;21.112;2023-06-19T06:18:19;17.70;99.90
50989;DHT22;37008;52.210;21.112;2023-06-19T06:20:45;17.80;99.90
50989;DHT22;37008;52.210;21.112;2023-06-19T06:23:10;17.90;99.90
50989;DHT22;37008;52.210;21.112;2023-06-19T06:25:36;18.00;99.90
50989;DHT22;37008;52.210;21.112;2023-06-19T06:28:02;18.10;99.90
50989;DHT22;37008;52.210;21.112;2023-06-19T06:30:27;18.20;99.90
50989;DHT22;37008;52.210;21.112;2023-06-19T06:32:53;18.20;99.90
50989;DHT22;37008;52.210;21.112;2023-06-19T06:35:19;18.30;99.90
50989;DHT22;37008;52.210;21.112;2023-06-19T06:37:44;18.40;99.90
50989;DHT22;37008;52.210;21.112;2023-06-19T06:40:11;18.60;99.90
50989;DHT22;37008;52.210;21.112;2023-06-19T06:42:38;18.60;99.90
50989;DHT22;37008;52.210;21.112;2023-06-19T06:45:07;18.70;99.90
50989;DHT22;37008;52.210;21.112;2023-06-19T06:47:35;18.80;99.90
50989;DHT22;37008;52.210;21.112;2023-06-19T06:50:00;18.80;99.90
50989;DHT22;37008;52.210;21.112;2023-06-19T06:52:26;18.90;99.90
50989;DHT22;37008;52.210;21.112;2023-06-19T06:54:53;19.00;99.90
50989;DHT22;37008;52.210;21.112;2023-06-19T06:57:19;19.10;99.90
50989;DHT22;37008;52.210;21.112;2023-06-19T06:59:44;19.20;99.90
50989;DHT22;37008;52.210;21.112;2023-06-19T07:02:10;19.30;99.90
50989;DHT22;37008;52.210;21.112;2023-06-19T07:04:36;19.30;99.90
50989;DHT22;37008;52.210;21.112;2023-06-19T07:07:01;19.40;99.90
50989;DHT22;37008;52.210;21.112;2023-06-19T07:09:29;19.50;99.90
50989;DHT22;37008;52.210;21.112;2023-06-19T07:11:54;19.50;99.90
50989;DHT22;37008;52.210;21.112;2023-06-19T07:14:20;19.60;99.90
50989;DHT22;37008;52.210;21.112;2023-06-19T07:16:46;19.70;99.90
50989;DHT22;37008;52.210;21.112;2023-06-19T07:19:11;19.70;99.90
50989;DHT22;37008;52.210;21.112;2023-06-19T07:21:38;19.80;99.90
50989;DHT22;37008;52.210;21.112;2023-06-19T07:24:04;19.80;99.90
50989;DHT22;37008;52.210;21.112;2023-06-19T07:26:30;19.80;99.90
50989;DHT22;37008;52.210;21.112;2023-06-19T07:28:56;20.00;99.90
50989;DHT22;37008;52.210;21.112;2023-06-19T07:31:22;20.10;99.90
50989;DHT22;37008;52.210;21.112;2023-06-19T07:33:48;20.20;99.90
50989;DHT22;37008;52.210;21.112;2023-06-19T07:36:14;20.20;99.90
50989;DHT22;37008;52.210;21.112;2023-06-19T07:38:42;20.30;99.90
50989;DHT22;37008;52.210;21.112;2023-06-19T07:41:08;20.30;99.90
50989;DHT22;37008;52.210;21.112;2023-06-19T07:43:35;20.30;99.90
50989;DHT22;37008;52.210;21.112;2023-06-19T07:46:01;20.40;99.90
50989;DHT22;37008;52.210;21.112;2023-06-19T07:48:27;20.40;99.90
50989;DHT22;37008;52.210;21.112;2023-06-19T07:50:53;20.50;99.90
50989;DHT22;37008;52.210;21.112;2023-06-19T07:53:19;20.50;99.90
50989;DHT22;37008;52.210;21.112;2023-06-19T07:55:45;20.50;99.50
50989;DHT22;37008;52.210;21.112;2023-06-19T07:58:10;20.60;99.60
50989;DHT22;37008;52.210;21.112;2023-06-19T08:00:36;20.70;99.90
50989;DHT22;37008;52.210;21.112;2023-06-19T08:03:02;20.80;99.90
50989;DHT22;37008;52.210;21.112;2023-06-19T08:05:27;20.90;99.90
50989;DHT22;37008;52.210;21.112;2023-06-19T08:07:53;21.00;99.00
50989;DHT22;37008;52.210;21.112;2023-06-19T08:10:19;21.10;97.70
50989;DHT22;37008;52.210;21.112;2023-06-19T08:12:45;21.20;95.60
50989;DHT22;37008;52.210;21.112;2023-06-19T08:15:11;21.20;94.10
50989;DHT22;37008;52.210;21.112;2023-06-19T08:17:38;21.30;93.70
50989;DHT22;37008;52.210;21.112;2023-06-19T08:20:05;21.40;93.30
50989;DHT22;37008;52.210;21.112;2023-06-19T08:22:33;21.40;92.30
50989;DHT22;37008;52.210;21.112;2023-06-19T08:24:58;21.50;90.50
50989;DHT22;37008;52.210;21.112;2023-06-19T08:27:24;21.60;88.20
50989;DHT22;37008;52.210;21.112;2023-06-19T08:29:50;21.60;85.80
50989;DHT22;37008;52.210;21.112;2023-06-19T08:32:16;21.50;83.90
50989;DHT22;37008;52.210;21.112;2023-06-19T08:34:42;21.50;84.70
50989;DHT22;37008;52.210;21.112;2023-06-19T08:37:07;21.60;85.80
50989;DHT22;37008;52.210;21.112;2023-06-19T08:39:34;21.70;85.40
50989;DHT22;37008;52.210;21.112;2023-06-19T08:42:01;21.80;84.40
50989;DHT22;37008;52.210;21.112;2023-06-19T08:44:26;21.90;84.00
50989;DHT22;37008;52.210;21.112;2023-06-19T08:46:52;22.10;83.40
50989;DHT22;37008;52.210;21.112;2023-06-19T08:49:18;22.20;83.60
50989;DHT22;37008;52.210;21.112;2023-06-19T08:51:43;22.30;82.00
50989;DHT22;37008;52.210;21.112;2023-06-19T08:54:09;22.30;78.70
50989;DHT22;37008;52.210;21.112;2023-06-19T08:56:35;22.30;75.10
50989;DHT22;37008;52.210;21.112;2023-06-19T08:59:13;22.20;75.40
50989;DHT22;37008;52.210;21.112;2023-06-19T09:01:39;22.20;74.90
50989;DHT22;37008;52.210;21.112;2023-06-19T09:04:09;22.30;74.90
50989;DHT22;37008;52.210;21.112;2023-06-19T09:06:36;22.30;72.70
50989;DHT22;37008;52.210;21.112;2023-06-19T09:09:13;22.20;73.10
50989;DHT22;37008;52.210;21.112;2023-06-19T09:11:39;22.10;72.90
50989;DHT22;37008;52.210;21.112;2023-06-19T09:14:11;22.20;72.80
50989;DHT22;37008;52.210;21.112;2023-06-19T09:16:41;22.30;73.70
50989;DHT22;37008;52.210;21.112;2023-06-19T09:19:07;22.30;73.50
50989;DHT22;37008;52.210;21.112;2023-06-19T09:21:35;22.40;72.30
50989;DHT22;37008;52.210;21.112;2023-06-19T09:24:04;22.40;70.60
50989;DHT22;37008;52.210;21.112;2023-06-19T09:26:30;22.50;70.20
50989;DHT22;37008;52.210;21.112;2023-06-19T09:28:55;22.50;70.00
50989;DHT22;37008;52.210;21.112;2023-06-19T09:31:31;22.60;68.80
50989;DHT22;37008;52.210;21.112;2023-06-19T09:33:58;22.70;70.00
50989;DHT22;37008;52.210;21.112;2023-06-19T09:36:24;22.90;69.90
50989;DHT22;37008;52.210;21.112;2023-06-19T09:38:52;22.90;69.30
50989;DHT22;37008;52.210;21.112;2023-06-19T09:41:19;23.00;68.60
50989;DHT22;37008;52.210;21.112;2023-06-19T09:43:47;23.10;68.40
50989;DHT22;37008;52.210;21.112;2023-06-19T09:46:14;23.30;68.60
50989;DHT22;37008;52.210;21.112;2023-06-19T09:48:44;23.40;69.00
50989;DHT22;37008;52.210;21.112;2023-06-19T09:51:19;23.50;68.10
50989;DHT22;37008;52.210;21.112;2023-06-19T09:53:46;23.70;67.20
50989;DHT22;37008;52.210;21.112;2023-06-19T09:56:13;23.80;66.20
50989;DHT22;37008;52.210;21.112;2023-06-19T09:58:40;23.90;65.00
50989;DHT22;37008;52.210;21.112;2023-06-19T10:01:07;23.90;64.30
50989;DHT22;37008;52.210;21.112;2023-06-19T10:03:34;24.00;63.30
50989;DHT22;37008;52.210;21.112;2023-06-19T10:06:01;24.00;61.80
50989;DHT22;37008;52.210;21.112;2023-06-19T10:08:31;24.10;60.90
50989;DHT22;37008;52.210;21.112;2023-06-19T10:10:57;24.20;58.90
50989;DHT22;37008;52.210;21.112;2023-06-19T10:13:31;24.40;58.20
50989;DHT22;37008;52.210;21.112;2023-06-19T10:15:57;24.50;58.40
50989;DHT22;37008;52.210;21.112;2023-06-19T10:18:23;24.60;57.60
50989;DHT22;37008;52.210;21.112;2023-06-19T10:20:50;24.80;57.90
50989;DHT22;37008;52.210;21.112;2023-06-19T10:23:21;24.90;57.10
50989;DHT22;37008;52.210;21.112;2023-06-19T10:25:58;25.10;57.30
50989;DHT22;37008;52.210;21.112;2023-06-19T10:28:32;25.20;56.60
50989;DHT22;37008;52.210;21.112;2023-06-19T10:31:03;25.20;56.40
50989;DHT22;37008;52.210;21.112;2023-06-19T10:33:33;25.30;56.80
50989;DHT22;37008;52.210;21.112;2023-06-19T10:36:00;25.30;56.50
50989;DHT22;37008;52.210;21.112;2023-06-19T10:38:26;25.40;56.70
50989;DHT22;37008;52.210;21.112;2023-06-19T10:40:52;25.50;57.30
50989;DHT22;37008;52.210;21.112;2023-06-19T10:43:22;25.60;57.30
50989;DHT22;37008;52.210;21.112;2023-06-19T10:45:50;25.60;55.00
50989;DHT22;37008;52.210;21.112;2023-06-19T10:48:20;25.60;54.50
50989;DHT22;37008;52.210;21.112;2023-06-19T10:50:47;25.50;53.20
50989;DHT22;37008;52.210;21.112;2023-06-19T10:53:23;25.30;52.80
50989;DHT22;37008;52.210;21.112;2023-06-19T10:55:55;25.20;52.80
50989;DHT22;37008;52.210;21.112;2023-06-19T10:58:20;25.20;53.20
50989;DHT22;37008;52.210;21.112;2023-06-19T11:00:47;25.20;53.70
50989;DHT22;37008;52.210;21.112;2023-06-19T11:03:13;25.20;53.50
50989;DHT22;37008;52.210;21.112;2023-06-19T11:05:43;25.20;52.80
50989;DHT22;37008;52.210;21.112;2023-06-19T11:08:09;25.30;53.00
50989;DHT22;37008;52.210;21.112;2023-06-19T11:10:35;25.40;52.70
50989;DHT22;37008;52.210;21.112;2023-06-19T11:13:01;25.40;52.60
50989;DHT22;37008;52.210;21.112;2023-06-19T11:15:31;25.40;52.70
50989;DHT22;37008;52.210;21.112;2023-06-19T11:17:58;25.50;52.70
50989;DHT22;37008;52.210;21.112;2023-06-19T11:20:25;25.50;53.30
50989;DHT22;37008;52.210;21.112;2023-06-19T11:22:55;25.60;51.90
50989;DHT22;37008;52.210;21.112;2023-06-19T11:25:21;25.60;51.30
50989;DHT22;37008;52.210;21.112;2023-06-19T11:27:47;25.60;50.90
50989;DHT22;37008;52.210;21.112;2023-06-19T11:30:18;25.60;49.80
50989;DHT22;37008;52.210;21.112;2023-06-19T11:32:46;25.60;49.10
50989;DHT22;37008;52.210;21.112;2023-06-19T11:35:15;25.70;50.10
50989;DHT22;37008;52.210;21.112;2023-06-19T11:37:42;25.80;50.80
50989;DHT22;37008;52.210;21.112;2023-06-19T11:40:09;25.80;49.50
50989;DHT22;37008;52.210;21.112;2023-06-19T11:42:47;25.90;49.30
50989;DHT22;37008;52.210;21.112;2023-06-19T11:45:13;26.00;49.80
50989;DHT22;37008;52.210;21.112;2023-06-19T11:47:39;26.00;49.40
50989;DHT22;37008;52.210;21.112;2023-06-19T11:50:06;26.10;50.40
50989;DHT22;37008;52.210;21.112;2023-06-19T11:52:31;26.20;50.90
50989;DHT22;37008;52.210;21.112;2023-06-19T11:54:57;26.30;49.80
50989;DHT22;37008;52.210;21.112;2023-06-19T11:57:23;26.30;48.80
50989;DHT22;37008;52.210;21.112;2023-06-19T11:59:48;26.40;49.10
50989;DHT22;37008;52.210;21.112;2023-06-19T12:02:14;26.50;48.90
50989;DHT22;37008;52.210;21.112;2023-06-19T12:04:40;26.60;48.90
50989;DHT22;37008;52.210;21.112;2023-06-19T12:07:05;26.70;49.80
50989;DHT22;37008;52.210;21.112;2023-06-19T12:09:31;26.90;48.90
50989;DHT22;37008;52.210;21.112;2023-06-19T12:11:58;27.00;48.00
50989;DHT22;37008;52.210;21.112;2023-06-19T12:14:23;27.10;48.40
50989;DHT22;37008;52.210;21.112;2023-06-19T12:16:50;27.20;48.10
50989;DHT22;37008;52.210;21.112;2023-06-19T12:19:16;27.40;47.90
50989;DHT22;37008;52.210;21.112;2023-06-19T12:21:42;27.60;48.50
50989;DHT22;37008;52.210;21.112;2023-06-19T12:24:07;27.70;47.80
50989;DHT22;37008;52.210;21.112;2023-06-19T12:26:35;27.80;46.10
50989;DHT22;37008;52.210;21.112;2023-06-19T12:29:02;27.90;46.00
50989;DHT22;37008;52.210;21.112;2023-06-19T12:31:29;27.90;46.00
50989;DHT22;37008;52.210;21.112;2023-06-19T12:33:54;28.10;46.10
50989;DHT22;37008;52.210;21.112;2023-06-19T12:36:20;28.20;45.40
50989;DHT22;37008;52.210;21.112;2023-06-19T12:38:46;28.20;45.10
50989;DHT22;37008;52.210;21.112;2023-06-19T12:41:13;28.30;44.90
50989;DHT22;37008;52.210;21.112;2023-06-19T12:43:38;28.40;44.00
50989;DHT22;37008;52.210;21.112;2023-06-19T12:46:04;28.40;43.70
50989;DHT22;37008;52.210;21.112;2023-06-19T12:48:30;28.40;43.30
50989;DHT22;37008;52.210;21.112;2023-06-19T12:50:56;28.30;43.30
50989;DHT22;37008;52.210;21.112;2023-06-19T12:53:21;28.50;43.80
50989;DHT22;37008;52.210;21.112;2023-06-19T12:55:52;28.60;43.40
50989;DHT22;37008;52.210;21.112;2023-06-19T12:58:18;28.70;43.50
50989;DHT22;37008;52.210;21.112;2023-06-19T13:00:44;28.70;43.70
50989;DHT22;37008;52.210;21.112;2023-06-19T13:03:10;28.60;43.60
50989;DHT22;37008;52.210;21.112;2023-06-19T13:05:36;28.40;44.80
50989;DHT22;37008;52.210;21.112;2023-06-19T13:08:02;28.20;45.00
50989;DHT22;37008;52.210;21.112;2023-06-19T13:10:27;28.10;46.80
50989;DHT22;37008;52.210;21.112;2023-06-19T13:12:53;27.90;45.00
50989;DHT22;37008;52.210;21.112;2023-06-19T13:15:19;27.80;45.00
50989;DHT22;37008;52.210;21.112;2023-06-19T13:17:44;27.80;45.80
50989;DHT22;37008;52.210;21.112;2023-06-19T13:20:10;27.80;44.80
50989;DHT22;37008;52.210;21.112;2023-06-19T13:22:36;27.80;43.90
50989;DHT22;37008;52.210;21.112;2023-06-19T13:25:01;27.80;44.50
50989;DHT22;37008;52.210;21.112;2023-06-19T13:27:27;27.80;44.40
50989;DHT22;37008;52.210;21.112;2023-06-19T13:29:54;27.80;43.50
50989;DHT22;37008;52.210;21.112;2023-06-19T13:32:20;27.80;43.00
50989;DHT22;37008;52.210;21.112;2023-06-19T13:34:46;27.90;43.70
50989;DHT22;37008;52.210;21.112;2023-06-19T13:37:11;28.10;44.30
50989;DHT22;37008;52.210;21.112;2023-06-19T13:39:37;28.10;43.80
50989;DHT22;37008;52.210;21.112;2023-06-19T13:42:04;28.00;43.70
50989;DHT22;37008;52.210;21.112;2023-06-19T13:44:30;28.10;44.40
50989;DHT22;37008;52.210;21.112;2023-06-19T13:46:55;28.10;44.10
50989;DHT22;37008;52.210;21.112;2023-06-19T13:49:21;28.40;42.70
50989;DHT22;37008;52.210;21.112;2023-06-19T13:51:47;28.80;41.80
50989;DHT22;37008;52.210;21.112;2023-06-19T13:54:13;29.50;42.90
50989;DHT22;37008;52.210;21.112;2023-06-19T13:56:39;30.30;41.70
50989;DHT22;37008;52.210;21.112;2023-06-19T13:59:05;31.00;39.50
50989;DHT22;37008;52.210;21.112;2023-06-19T14:01:31;31.70;39.50
50989;DHT22;37008;52.210;21.112;2023-06-19T14:03:57;32.20;38.40
50989;DHT22;37008;52.210;21.112;2023-06-19T14:06:24;32.60;37.20
50989;DHT22;37008;52.210;21.112;2023-06-19T14:08:50;33.00;36.50
50989;DHT22;37008;52.210;21.112;2023-06-19T14:11:16;33.20;34.90
50989;DHT22;37008;52.210;21.112;2023-06-19T14:13:42;33.30;34.00
50989;DHT22;37008;52.210;21.112;2023-06-19T14:16:08;33.50;35.40
50989;DHT22;37008;52.210;21.112;2023-06-19T14:18:33;33.80;34.80
50989;DHT22;37008;52.210;21.112;2023-06-19T14:21:02;33.90;33.60
50989;DHT22;37008;52.210;21.112;2023-06-19T14:23:27;34.00;34.10
50989;DHT22;37008;52.210;21.112;2023-06-19T14:25:53;34.00;33.70
50989;DHT22;37008;52.210;21.112;2023-06-19T14:28:18;34.10;33.10
50989;DHT22;37008;52.210;21.112;2023-06-19T14:30:47;34.20;32.50
50989;DHT22;37008;52.210;21.112;2023-06-19T14:33:13;34.50;33.50
50989;DHT22;37008;52.210;21.112;2023-06-19T14:35:42;34.70;33.80
50989;DHT22;37008;52.210;21.112;2023-06-19T14:38:10;34.40;33.40
50989;DHT22;37008;52.210;21.112;2023-06-19T14:40:35;34.00;33.30
50989;DHT22;37008;52.210;21.112;2023-06-19T14:43:02;34.00;32.80
50989;DHT22;37008;52.210;21.112;2023-06-19T14:45:28;34.10;33.00
50989;DHT22;37008;52.210;21.112;2023-06-19T14:47:53;34.40;32.70
50989;DHT22;37008;52.210;21.112;2023-06-19T14:50:19;34.60;31.70
50989;DHT22;37008;52.210;21.112;2023-06-19T14:52:45;34.80;31.60
50989;DHT22;37008;52.210;21.112;2023-06-19T14:55:11;34.80;31.00
50989;DHT22;37008;52.210;21.112;2023-06-19T14:57:36;34.80;30.90
50989;DHT22;37008;52.210;21.112;2023-06-19T15:00:03;34.60;33.10
50989;DHT22;37008;52.210;21.112;2023-06-19T15:02:31;34.80;34.30
50989;DHT22;37008;52.210;21.112;2023-06-19T15:04:56;35.30;33.70
50989;DHT22;37008;52.210;21.112;2023-06-19T15:07:22;35.50;31.80
50989;DHT22;37008;52.210;21.112;2023-06-19T15:09:48;35.60;32.60
50989;DHT22;37008;52.210;21.112;2023-06-19T15:12:16;35.80;32.30
50989;DHT22;37008;52.210;21.112;2023-06-19T15:14:42;36.00;31.50
50989;DHT22;37008;52.210;21.112;2023-06-19T15:17:07;36.20;31.00